createdAt,value
2023-01-29T00:02:00.449Z,99944.25
2023-01-29T00:04:27.267Z,99943.13
2023-01-29T00:06:53.961Z,99950.13
2023-01-29T00:09:20.663Z,99941.56
2023-01-29T00:11:47.585Z,99942.63
2023-01-29T00:14:14.296Z,99942.41
2023-01-29T00:16:40.988Z,99943.22
2023-01-29T00:19:07.741Z,99949.28
2023-01-29T00:21:34.719Z,99938.38
2023-01-29T00:24:01.443Z,99945.72
2023-01-29T00:26:28.540Z,99938.44
2023-01-29T00:28:57.214Z,99945.66
2023-01-29T00:31:25.494Z,99954.19
2023-01-29T00:33:52.438Z,99954.81
2023-01-29T00:36:20.901Z,99943.31
2023-01-29T00:38:54.906Z,99956.28
2023-01-29T00:41:40.754Z,99956.97
2023-01-29T00:44:26.154Z,99959.41
2023-01-29T00:46:52.951Z,99957.16
2023-01-29T00:49:19.710Z,99956.44
2023-01-29T00:52:06.617Z,99965.88
2023-01-29T00:54:33.366Z,99952.03
2023-01-29T00:57:00.528Z,99966.94
2023-01-29T00:59:27.229Z,99968.00
2023-01-29T01:02:12.697Z,99967.47
2023-01-29T01:04:39.411Z,99968.25
2023-01-29T01:07:06.660Z,99980.00
2023-01-29T01:10:14.595Z,99977.47
2023-01-29T01:12:41.450Z,99975.16
2023-01-29T01:15:08.916Z,99981.50
2023-01-29T01:17:36.110Z,99971.16
2023-01-29T01:20:03.602Z,99976.09
2023-01-29T01:22:31.301Z,99985.53
2023-01-29T01:24:58.109Z,99980.56
2023-01-29T01:27:25.759Z,99968.00
2023-01-29T01:29:52.469Z,99983.44
2023-01-29T01:32:19.243Z,99985.88
2023-01-29T01:34:45.956Z,99985.13
2023-01-29T01:37:12.659Z,99988.00
2023-01-29T01:39:39.346Z,99988.63
2023-01-29T01:42:12.147Z,99994.63
2023-01-29T01:44:56.319Z,99994.34
2023-01-29T01:47:30.396Z,99999.09
2023-01-29T01:50:12.415Z,100000.63
2023-01-29T01:52:44.812Z,100004.22
2023-01-29T01:55:16.085Z,100009.50
2023-01-29T01:57:45.494Z,100008.91
2023-01-29T02:00:16.250Z,100008.69
2023-01-29T02:03:04.532Z,100008.06
2023-01-29T02:05:53.075Z,100010.75
2023-01-29T02:08:56.044Z,99998.28
2023-01-29T02:11:23.209Z,99999.81
2023-01-29T02:13:53.827Z,100023.53
2023-01-29T02:16:22.395Z,100025.19
2023-01-29T02:18:50.172Z,100011.97
2023-01-29T02:21:44.764Z,100020.47
2023-01-29T02:24:20.733Z,100019.69
2023-01-29T02:26:53.854Z,100030.88
2023-01-29T02:29:48.888Z,100024.91
2023-01-29T02:32:40.983Z,100033.34
2023-01-29T02:35:30.116Z,100031.28
2023-01-29T02:38:05.945Z,100040.22
2023-01-29T02:40:54.867Z,100032.63
2023-01-29T02:43:42.224Z,100028.66
2023-01-29T02:46:17.484Z,100031.53
2023-01-29T02:48:54.575Z,100037.31
2023-01-29T02:51:30.004Z,100031.41
2023-01-29T02:54:21.312Z,100031.97
2023-01-29T02:57:10.652Z,100042.72
2023-01-29T02:59:44.429Z,100042.00
2023-01-29T03:02:17.114Z,100037.59
2023-01-29T03:04:49.082Z,100033.50
2023-01-29T03:07:46.020Z,100023.28
2023-01-29T03:10:38.842Z,100042.97
2023-01-29T03:13:34.867Z,100050.56
2023-01-29T03:16:07.942Z,100050.41
2023-01-29T03:18:45.945Z,100054.69
2023-01-29T03:21:37.534Z,100038.53
2023-01-29T03:24:25.104Z,100048.34
2023-01-29T03:27:11.609Z,100052.03
2023-01-29T03:29:58.927Z,100051.66
2023-01-29T03:32:28.998Z,100046.53
2023-01-29T03:35:00.911Z,100056.06
2023-01-29T03:37:36.662Z,100058.28
2023-01-29T03:40:05.433Z,100057.03
2023-01-29T03:42:59.669Z,100053.47
2023-01-29T03:45:42.892Z,100058.97
2023-01-29T03:48:24.738Z,100065.47
2023-01-29T03:51:12.155Z,100067.38
2023-01-29T03:53:49.836Z,100048.09
2023-01-29T03:56:33.230Z,100056.50
2023-01-29T03:59:15.361Z,100054.72
2023-01-29T04:01:41.991Z,100066.56
2023-01-29T04:04:21.479Z,100070.56
2023-01-29T04:06:50.425Z,100072.06
2023-01-29T04:09:42.621Z,100067.13
2023-01-29T04:12:12.518Z,100081.19
2023-01-29T04:14:39.628Z,100076.91
2023-01-29T04:17:15.087Z,100079.25
2023-01-29T04:19:41.848Z,100071.66
2023-01-29T04:22:22.026Z,100072.63
2023-01-29T04:24:49.402Z,100080.06
2023-01-29T04:27:27.008Z,100075.22
2023-01-29T04:30:02.825Z,100087.25
2023-01-29T04:32:42.377Z,100076.47
2023-01-29T04:35:30.441Z,100088.59
2023-01-29T04:38:17.651Z,100097.69
2023-01-29T04:41:08.465Z,100088.88
2023-01-29T04:43:43.959Z,100090.50
2023-01-29T04:46:19.256Z,100086.09
2023-01-29T04:49:01.460Z,100089.66
2023-01-29T04:51:39.953Z,100093.00
2023-01-29T04:54:18.440Z,100090.66
2023-01-29T04:57:16.456Z,100096.72
2023-01-29T04:59:48.374Z,100098.09
2023-01-29T05:02:15.089Z,100098.34
2023-01-29T05:04:44.787Z,100099.91
2023-01-29T05:07:15.079Z,100109.53
2023-01-29T05:09:45.181Z,100110.34
2023-01-29T05:12:14.320Z,100093.53
2023-01-29T05:14:44.721Z,100119.16
2023-01-29T05:17:20.377Z,100106.91
2023-01-29T05:19:47.643Z,100109.56
2023-01-29T05:22:18.756Z,100105.31
2023-01-29T05:24:46.659Z,100118.75
2023-01-29T05:27:38.032Z,100119.75
2023-01-29T05:30:05.918Z,100118.25
2023-01-29T05:32:33.027Z,100124.53
2023-01-29T05:34:59.789Z,100138.25
2023-01-29T05:37:26.504Z,100127.91
2023-01-29T05:39:53.183Z,100131.13
2023-01-29T05:42:20.003Z,100122.59
2023-01-29T05:44:46.700Z,100142.03
2023-01-29T05:47:13.593Z,100140.94
2023-01-29T05:49:40.236Z,100136.50
2023-01-29T05:52:07.015Z,100153.69
2023-01-29T05:54:33.614Z,100131.88
2023-01-29T05:57:00.313Z,100157.22
2023-01-29T05:59:26.977Z,100161.88
2023-01-29T06:01:53.710Z,100165.75
2023-01-29T06:04:20.396Z,100166.34
2023-01-29T06:06:47.149Z,100175.91
2023-01-29T06:09:13.923Z,100166.00
2023-01-29T06:11:40.934Z,100171.47
2023-01-29T06:14:07.581Z,100163.75
2023-01-29T06:16:34.298Z,100179.09
2023-01-29T06:19:01.046Z,100187.78
2023-01-29T06:21:27.754Z,100186.53
2023-01-29T06:23:54.509Z,100191.78
2023-01-29T06:26:21.589Z,100194.84
2023-01-29T06:28:51.366Z,100186.03
2023-01-29T06:31:37.979Z,100202.66
2023-01-29T06:34:06.615Z,100197.84
2023-01-29T06:36:33.429Z,100200.47
2023-01-29T06:39:00.150Z,100196.78
2023-01-29T06:41:26.911Z,100206.88
2023-01-29T06:43:53.573Z,100201.34
2023-01-29T06:46:20.495Z,100189.06
2023-01-29T06:48:47.257Z,100208.28
2023-01-29T06:51:13.948Z,100212.03
2023-01-29T06:53:40.964Z,100219.41
2023-01-29T06:56:08.048Z,100192.28
2023-01-29T06:58:38.257Z,100215.91
2023-01-29T07:01:10.498Z,100219.06
2023-01-29T07:03:37.833Z,100209.03
2023-01-29T07:06:05.518Z,100217.53
2023-01-29T07:08:32.201Z,100214.13
2023-01-29T07:11:00.680Z,100220.91
2023-01-29T07:13:27.575Z,100221.59
2023-01-29T07:15:54.316Z,100217.75
2023-01-29T07:18:20.989Z,100224.59
2023-01-29T07:20:47.639Z,100215.75
2023-01-29T07:23:14.395Z,100220.03
2023-01-29T07:25:41.555Z,100226.66
2023-01-29T07:28:08.398Z,100232.31
2023-01-29T07:30:35.770Z,100229.00
2023-01-29T07:33:08.265Z,100228.84
2023-01-29T07:35:39.563Z,100226.13
2023-01-29T07:38:07.657Z,100229.06
2023-01-29T07:40:34.732Z,100224.94
2023-01-29T07:43:03.999Z,100241.38
2023-01-29T07:45:31.586Z,100234.44
2023-01-29T07:47:58.316Z,100241.47
2023-01-29T07:50:26.820Z,100249.06
2023-01-29T07:52:57.060Z,100251.00
2023-01-29T07:55:23.990Z,100255.69
2023-01-29T07:57:58.620Z,100234.31
2023-01-29T08:00:25.493Z,100258.03
2023-01-29T08:02:52.597Z,100252.50
2023-01-29T08:05:19.410Z,100258.75
2023-01-29T08:07:54.153Z,100222.84
2023-01-29T08:10:28.507Z,100258.03
2023-01-29T08:13:00.122Z,100263.44
2023-01-29T08:15:27.456Z,100264.13
2023-01-29T08:17:57.953Z,100272.84
2023-01-29T08:20:25.497Z,100268.97
2023-01-29T08:23:02.394Z,100275.00
2023-01-29T08:25:29.852Z,100273.50
2023-01-29T08:27:58.043Z,100276.28
2023-01-29T08:30:31.311Z,100276.44
2023-01-29T08:32:58.421Z,100279.75
2023-01-29T08:35:25.702Z,100283.19
2023-01-29T08:37:59.362Z,100280.78
2023-01-29T08:40:31.687Z,100277.91
2023-01-29T08:43:08.718Z,100280.41
2023-01-29T08:45:39.098Z,100277.38
2023-01-29T08:48:06.085Z,100283.13
2023-01-29T08:50:34.947Z,100271.56
2023-01-29T08:53:03.781Z,100279.56
2023-01-29T08:55:30.509Z,100277.88
2023-01-29T08:57:59.969Z,100282.03
2023-01-29T09:00:26.792Z,100278.47
2023-01-29T09:02:53.564Z,100269.25
2023-01-29T09:05:20.573Z,100260.78
2023-01-29T09:07:47.353Z,100284.69
2023-01-29T09:10:14.106Z,100283.31
2023-01-29T09:12:40.779Z,100277.38
2023-01-29T09:15:08.034Z,100282.22
2023-01-29T09:17:34.811Z,100281.00
2023-01-29T09:20:01.499Z,100280.88
2023-01-29T09:22:28.750Z,100275.34
2023-01-29T09:24:55.505Z,100259.72
2023-01-29T09:27:22.191Z,100280.44
2023-01-29T09:29:48.897Z,100278.50
2023-01-29T09:32:19.576Z,100280.88
2023-01-29T09:34:49.868Z,100272.44
2023-01-29T09:37:17.859Z,100273.53
2023-01-29T09:39:44.617Z,100268.72
2023-01-29T09:42:23.262Z,100273.25
2023-01-29T09:45:05.335Z,100270.50
2023-01-29T09:47:34.955Z,100274.66
2023-01-29T09:50:28.455Z,100277.56
2023-01-29T09:53:22.377Z,100270.50
2023-01-29T09:56:28.807Z,100270.50
2023-01-29T09:59:00.639Z,100261.28
2023-01-29T10:01:53.028Z,100262.22
2023-01-29T10:05:10.884Z,100266.91
2023-01-29T10:07:56.644Z,100269.81
2023-01-29T10:10:41.913Z,100265.28
2023-01-29T10:13:39.797Z,100261.25
2023-01-29T10:16:44.447Z,100258.09
2023-01-29T10:19:45.684Z,100252.84
2023-01-29T10:22:33.705Z,100256.97
2023-01-29T10:25:06.945Z,100253.81
2023-01-29T10:27:38.570Z,100249.94
2023-01-29T10:30:21.301Z,100248.41
2023-01-29T10:32:49.491Z,100242.44
2023-01-29T10:35:24.516Z,100248.91
2023-01-29T10:37:54.593Z,100247.44
2023-01-29T10:40:35.526Z,100232.13
2023-01-29T10:43:08.858Z,100242.31
2023-01-29T10:46:20.570Z,100232.06
2023-01-29T10:49:05.759Z,100236.94
2023-01-29T10:51:38.249Z,100235.69
2023-01-29T10:54:22.861Z,100234.59
2023-01-29T10:57:02.294Z,100225.19
2023-01-29T10:59:56.335Z,100213.78
2023-01-29T11:02:23.054Z,100216.97
2023-01-29T11:04:49.817Z,100215.16
2023-01-29T11:07:19.715Z,100204.41
2023-01-29T11:09:57.706Z,100214.69
2023-01-29T11:12:30.837Z,100219.81
2023-01-29T11:15:06.565Z,100218.16
2023-01-29T11:17:33.452Z,100218.22
2023-01-29T11:20:00.267Z,100215.13
2023-01-29T11:22:30.880Z,100210.00
2023-01-29T11:25:20.293Z,100211.34
2023-01-29T11:27:52.282Z,100212.56
2023-01-29T11:30:35.952Z,100208.25
2023-01-29T11:33:05.680Z,100203.84
2023-01-29T11:35:33.382Z,100196.25
2023-01-29T11:38:22.963Z,100191.34
2023-01-29T11:40:49.944Z,100192.13
2023-01-29T11:43:29.999Z,100177.25
2023-01-29T11:46:03.615Z,100187.22
2023-01-29T11:48:40.959Z,100177.31
2023-01-29T11:51:10.294Z,100177.69
2023-01-29T11:53:44.939Z,100174.06
2023-01-29T11:56:22.657Z,100167.44
2023-01-29T11:58:52.850Z,100166.53
2023-01-29T12:01:34.811Z,100159.19
2023-01-29T12:04:02.728Z,100173.34
2023-01-29T12:06:44.459Z,100166.31
2023-01-29T12:09:17.422Z,100165.97
2023-01-29T12:11:44.391Z,100170.34
2023-01-29T12:14:34.312Z,100165.75
2023-01-29T12:17:12.092Z,100167.97
2023-01-29T12:19:43.847Z,100151.94
2023-01-29T12:22:47.082Z,100172.00
2023-01-29T12:25:21.243Z,100170.13
2023-01-29T12:28:09.548Z,100163.69
2023-01-29T12:31:24.249Z,100166.31
2023-01-29T12:34:18.815Z,100171.47
2023-01-29T12:36:55.481Z,100168.63
2023-01-29T12:39:22.751Z,100163.16
2023-01-29T12:42:05.345Z,100167.88
2023-01-29T12:44:37.071Z,100174.03
2023-01-29T12:47:07.513Z,100167.88
2023-01-29T12:49:38.253Z,100172.66
2023-01-29T12:52:11.767Z,100182.19
2023-01-29T12:54:43.240Z,100174.78
2023-01-29T12:57:21.734Z,100180.03
2023-01-29T13:00:12.374Z,100166.31
2023-01-29T13:03:08.695Z,100171.41
2023-01-29T13:05:48.789Z,100178.97
2023-01-29T13:08:27.854Z,100180.19
2023-01-29T13:10:57.127Z,100174.47
2023-01-29T13:13:45.317Z,100175.66
2023-01-29T13:16:15.880Z,100187.22
2023-01-29T13:19:03.656Z,100183.25
2023-01-29T13:21:36.548Z,100186.16
2023-01-29T13:24:09.989Z,100189.03
2023-01-29T13:26:37.635Z,100188.56
2023-01-29T13:29:05.621Z,100186.88
2023-01-29T13:31:38.140Z,100185.19
2023-01-29T13:34:12.835Z,100182.72
2023-01-29T13:36:54.506Z,100177.25
2023-01-29T13:39:28.725Z,100180.88
2023-01-29T13:41:57.141Z,100176.22
2023-01-29T13:44:35.029Z,100184.53
2023-01-29T13:47:08.782Z,100187.53
2023-01-29T13:49:57.523Z,100184.66
2023-01-29T13:52:54.605Z,100191.31
2023-01-29T13:55:32.108Z,100175.34
2023-01-29T13:58:03.891Z,100187.25
2023-01-29T14:00:33.623Z,100182.56
2023-01-29T14:03:00.311Z,100187.25
2023-01-29T14:05:30.214Z,100189.84
2023-01-29T14:07:59.283Z,100185.97
2023-01-29T14:10:28.774Z,100186.03
2023-01-29T14:13:15.767Z,100190.28
2023-01-29T14:15:42.606Z,100184.50
2023-01-29T14:18:09.379Z,100194.00
2023-01-29T14:20:45.633Z,100190.97
2023-01-29T14:23:46.828Z,100193.19
2023-01-29T14:26:33.769Z,100194.84
2023-01-29T14:29:14.463Z,100190.28
2023-01-29T14:31:52.287Z,100197.59
2023-01-29T14:34:33.216Z,100193.31
2023-01-29T14:37:31.362Z,100203.16
2023-01-29T14:40:14.050Z,100203.25
2023-01-29T14:43:04.328Z,100202.56
2023-01-29T14:45:44.760Z,100205.47
2023-01-29T14:48:11.680Z,100207.84
2023-01-29T14:50:42.666Z,100206.75
2023-01-29T14:53:21.590Z,100207.41
2023-01-29T14:56:16.063Z,100208.81
2023-01-29T14:58:49.226Z,100206.31
2023-01-29T15:01:25.942Z,100210.75
2023-01-29T15:03:58.664Z,100219.16
2023-01-29T15:06:47.237Z,100204.66
2023-01-29T15:09:36.552Z,100209.09
2023-01-29T15:12:10.950Z,100208.81
2023-01-29T15:14:44.640Z,100187.69
2023-01-29T15:17:29.782Z,100215.00
2023-01-29T15:19:57.807Z,100213.63
2023-01-29T15:22:26.165Z,100211.41
2023-01-29T15:25:04.419Z,100210.31
2023-01-29T15:27:31.293Z,100209.06
2023-01-29T15:30:02.545Z,100213.91
2023-01-29T15:32:39.495Z,100203.69
2023-01-29T15:35:10.867Z,100218.06
2023-01-29T15:37:38.177Z,100219.69
2023-01-29T15:40:12.380Z,100229.34
2023-01-29T15:42:46.708Z,100228.66
2023-01-29T15:45:31.560Z,100224.81
2023-01-29T15:48:06.734Z,100222.47
2023-01-29T15:50:36.705Z,100207.72
2023-01-29T15:53:08.111Z,100218.06
2023-01-29T15:55:35.955Z,100235.31
2023-01-29T15:58:02.981Z,100224.81
2023-01-29T16:00:30.574Z,100236.97
2023-01-29T16:02:59.187Z,100223.72
2023-01-29T16:05:30.785Z,100247.88
2023-01-29T16:07:58.006Z,100248.56
2023-01-29T16:10:28.285Z,100234.78
2023-01-29T16:12:56.244Z,100243.19
2023-01-29T16:15:38.081Z,100253.09
2023-01-29T16:18:21.371Z,100259.59
2023-01-29T16:20:53.250Z,100259.72
2023-01-29T16:23:27.786Z,100245.81
2023-01-29T16:26:01.506Z,100255.59
2023-01-29T16:28:28.824Z,100255.19
2023-01-29T16:30:58.508Z,100242.22
2023-01-29T16:33:36.428Z,100238.34
2023-01-29T16:36:11.686Z,100248.81
2023-01-29T16:38:43.251Z,100253.41
2023-01-29T16:41:27.830Z,100244.97
2023-01-29T16:44:23.657Z,100255.03
2023-01-29T16:46:53.085Z,100245.09
2023-01-29T16:49:28.675Z,100260.31
2023-01-29T16:51:58.690Z,100248.56
2023-01-29T16:54:27.615Z,100249.66
2023-01-29T16:57:02.312Z,100258.38
2023-01-29T16:59:36.595Z,100257.81
2023-01-29T17:02:04.700Z,100261.69
2023-01-29T17:04:31.470Z,100243.72
2023-01-29T17:07:02.073Z,100246.22
2023-01-29T17:09:32.840Z,100264.56
2023-01-29T17:12:08.700Z,100265.28
2023-01-29T17:14:38.794Z,100264.44
2023-01-29T17:17:14.393Z,100247.19
2023-01-29T17:19:41.101Z,100253.38
2023-01-29T17:22:15.084Z,100259.75
2023-01-29T17:24:42.501Z,100255.59
2023-01-29T17:27:19.532Z,100252.16
2023-01-29T17:29:46.403Z,100249.53
2023-01-29T17:32:13.209Z,100244.69
2023-01-29T17:34:39.950Z,100248.56
2023-01-29T17:37:09.161Z,100235.84
2023-01-29T17:39:36.934Z,100255.34
2023-01-29T17:42:03.881Z,100242.63
2023-01-29T17:44:30.648Z,100241.38
2023-01-29T17:46:57.778Z,100253.00
2023-01-29T17:49:27.741Z,100255.59
2023-01-29T17:51:56.974Z,100262.09
2023-01-29T17:54:25.739Z,100254.38
2023-01-29T17:56:53.981Z,100258.38
2023-01-29T17:59:23.129Z,100265.28
2023-01-29T18:01:51.279Z,100258.09
2023-01-29T18:04:18.321Z,100265.38
2023-01-29T18:06:48.335Z,100256.97
2023-01-29T18:09:20.363Z,100270.66
2023-01-29T18:11:48.296Z,100262.34
2023-01-29T18:14:16.193Z,100266.91
2023-01-29T18:16:45.907Z,100272.88
2023-01-29T18:19:15.740Z,100277.41
2023-01-29T18:21:42.514Z,100275.22
2023-01-29T18:24:09.278Z,100269.00
2023-01-29T18:26:36.243Z,100277.69
2023-01-29T18:29:03.954Z,100258.91
2023-01-29T18:31:30.815Z,100256.97
2023-01-29T18:33:57.877Z,100275.75
2023-01-29T18:36:24.640Z,100275.50
2023-01-29T18:38:51.318Z,100279.09
2023-01-29T18:41:18.330Z,100268.59
2023-01-29T18:43:45.206Z,100214.19
2023-01-29T18:46:12.304Z,100273.13
2023-01-29T18:48:41.682Z,100278.78
2023-01-29T18:51:09.633Z,100273.97
2023-01-29T18:53:36.398Z,100261.81
2023-01-29T18:56:05.538Z,100276.03
2023-01-29T18:58:35.615Z,100279.34
2023-01-29T19:01:09.101Z,100283.50
2023-01-29T19:03:36.506Z,100270.38
2023-01-29T19:06:05.488Z,100255.31
2023-01-29T19:08:32.892Z,100271.03
2023-01-29T19:11:02.544Z,100271.19
2023-01-29T19:13:30.809Z,100268.03
2023-01-29T19:15:57.932Z,100267.34
2023-01-29T19:18:26.386Z,100270.66
2023-01-29T19:20:53.518Z,100256.69
2023-01-29T19:23:21.445Z,100261.53
2023-01-29T19:25:48.429Z,100257.13
2023-01-29T19:28:15.343Z,100252.13
2023-01-29T19:30:42.509Z,100274.38
2023-01-29T19:33:10.278Z,100271.22
2023-01-29T19:35:37.546Z,100268.84
2023-01-29T19:38:05.424Z,100270.78
2023-01-29T19:40:32.540Z,100270.22
2023-01-29T19:43:00.129Z,100264.28
2023-01-29T19:45:49.224Z,100256.16
2023-01-29T19:48:20.352Z,100277.00
2023-01-29T19:50:58.421Z,100282.50
2023-01-29T19:53:27.327Z,100286.38
2023-01-29T19:56:09.064Z,100281.44
2023-01-29T19:58:36.226Z,100271.34
2023-01-29T20:01:06.502Z,100279.34
2023-01-29T20:03:34.236Z,100249.75
2023-01-29T20:06:06.300Z,100280.06
2023-01-29T20:08:33.774Z,100275.34
2023-01-29T20:11:01.899Z,100268.84
2023-01-29T20:13:28.639Z,100272.13
2023-01-29T20:15:56.080Z,100274.91
2023-01-29T20:18:23.144Z,100265.41
2023-01-29T20:20:50.820Z,100275.63
2023-01-29T20:23:31.865Z,100271.19
2023-01-29T20:26:04.386Z,100259.97
2023-01-29T20:28:31.126Z,100270.59
2023-01-29T20:30:59.145Z,100263.72
2023-01-29T20:33:26.725Z,100264.25
2023-01-29T20:35:58.006Z,100266.72
2023-01-29T20:38:30.453Z,100255.75
2023-01-29T20:41:05.660Z,100250.44
2023-01-29T20:43:33.081Z,100241.63
2023-01-29T20:46:01.138Z,100235.38
2023-01-29T20:48:29.284Z,100255.09
2023-01-29T20:50:56.015Z,100265.09
2023-01-29T20:53:22.984Z,100270.47
2023-01-29T20:55:50.054Z,100267.84
2023-01-29T20:58:17.063Z,100275.22
2023-01-29T21:00:44.586Z,100278.66
2023-01-29T21:03:11.236Z,100274.13
2023-01-29T21:05:37.910Z,100255.44
2023-01-29T21:08:04.977Z,100271.59
2023-01-29T21:10:31.746Z,100254.34
2023-01-29T21:12:58.460Z,100281.16
2023-01-29T21:15:27.401Z,100271.84
2023-01-29T21:17:54.545Z,100281.56
2023-01-29T21:20:21.281Z,100273.13
2023-01-29T21:22:49.194Z,100270.50
2023-01-29T21:25:19.243Z,100278.53
2023-01-29T21:27:45.975Z,100265.53
2023-01-29T21:30:12.832Z,100262.19
2023-01-29T21:32:39.540Z,100250.50
2023-01-29T21:35:08.041Z,100270.94
2023-01-29T21:37:37.906Z,100258.91
2023-01-29T21:40:06.740Z,100260.41
2023-01-29T21:42:52.030Z,100261.38
2023-01-29T21:45:18.815Z,100261.09
2023-01-29T21:47:48.339Z,100261.53
2023-01-29T21:50:15.632Z,100260.81
2023-01-29T21:52:42.782Z,100255.72
2023-01-29T21:55:09.711Z,100252.00
2023-01-29T21:57:36.652Z,100247.44
2023-01-29T22:00:04.156Z,100238.75
2023-01-29T22:02:32.235Z,100227.16
2023-01-29T22:05:17.261Z,100251.94
2023-01-29T22:07:45.462Z,100244.13
2023-01-29T22:10:12.644Z,100243.13
2023-01-29T22:12:40.023Z,100234.59
2023-01-29T22:15:07.892Z,100246.59
2023-01-29T22:17:35.416Z,100236.22
2023-01-29T22:20:02.396Z,100247.16
2023-01-29T22:22:29.068Z,100237.38
2023-01-29T22:24:57.776Z,100238.19
2023-01-29T22:27:24.739Z,100242.19
2023-01-29T22:29:51.543Z,100219.56
2023-01-29T22:32:18.370Z,100232.41
2023-01-29T22:34:45.061Z,100224.66
2023-01-29T22:37:11.851Z,100216.94
2023-01-29T22:39:38.480Z,100226.47
2023-01-29T22:42:05.519Z,100221.34
2023-01-29T22:44:32.138Z,100222.13
2023-01-29T22:46:58.854Z,100222.97
2023-01-29T22:49:25.855Z,100209.88
2023-01-29T22:52:10.129Z,100216.53
2023-01-29T22:54:41.823Z,100226.47
2023-01-29T22:57:11.677Z,100228.22
2023-01-29T22:59:38.442Z,100231.41
2023-01-29T23:02:05.864Z,100225.91
2023-01-29T23:04:32.677Z,100232.25
2023-01-29T23:06:59.446Z,100224.38
2023-01-29T23:09:26.167Z,100225.88
2023-01-29T23:11:52.868Z,100210.16
2023-01-29T23:14:19.583Z,100231.97
2023-01-29T23:16:46.229Z,100235.69
2023-01-29T23:19:13.040Z,100235.56
2023-01-29T23:21:39.849Z,100231.28
2023-01-29T23:24:08.332Z,100232.81
2023-01-29T23:26:53.471Z,100234.16
2023-01-29T23:29:20.464Z,100225.84
2023-01-29T23:31:47.232Z,100242.78
2023-01-29T23:34:14.393Z,100233.97
2023-01-29T23:36:41.354Z,100230.53
2023-01-29T23:39:08.136Z,100234.25
2023-01-29T23:41:34.984Z,100230.25
2023-01-29T23:44:01.629Z,100230.41
2023-01-29T23:46:28.359Z,100224.28
2023-01-29T23:48:55.087Z,100223.47
2023-01-29T23:51:21.741Z,100220.06
2023-01-29T23:53:48.401Z,100216.31
2023-01-29T23:56:15.150Z,100228.47
2023-01-29T23:58:41.840Z,100230.72
